createdAt,value
2018-12-11T00:01:43.310Z,0.30
2018-12-11T00:04:19.500Z,0.30
2018-12-11T00:06:57.442Z,0.20
2018-12-11T00:09:35.343Z,0.00
2018-12-11T00:12:11.048Z,-0.10
2018-12-11T00:14:47.139Z,-0.20
2018-12-11T00:17:23.623Z,-0.10
2018-12-11T00:19:59.541Z,0.00
2018-12-11T00:22:38.265Z,-0.10
2018-12-11T00:25:14.327Z,-0.10
2018-12-11T00:27:52.858Z,-0.20
2018-12-11T00:30:28.907Z,-0.20
2018-12-11T00:33:05.109Z,-0.20
2018-12-11T00:35:43.219Z,-0.10
2018-12-11T00:38:19.993Z,0.00
2018-12-11T00:40:57.891Z,0.00
2018-12-11T00:43:34.558Z,0.00
2018-12-11T00:46:10.921Z,0.10
2018-12-11T00:48:49.090Z,0.10
2018-12-11T00:51:26.113Z,0.10
2018-12-11T00:54:02.039Z,0.10
2018-12-11T00:56:47.452Z,0.00
2018-12-11T00:59:23.676Z,0.00
2018-12-11T01:02:04.471Z,0.10
2018-12-11T01:04:40.644Z,0.10
2018-12-11T01:07:16.754Z,0.20
2018-12-11T01:09:52.778Z,0.20
2018-12-11T01:12:28.670Z,0.30
2018-12-11T01:15:06.304Z,0.30
2018-12-11T01:17:42.339Z,0.30
2018-12-11T01:20:18.903Z,0.30
2018-12-11T01:22:59.826Z,0.30
2018-12-11T01:25:35.902Z,0.30
2018-12-11T01:28:12.716Z,0.30
2018-12-11T01:30:48.759Z,0.20
2018-12-11T01:33:25.567Z,0.20
2018-12-11T01:36:04.206Z,0.10
2018-12-11T01:38:41.682Z,0.10
2018-12-11T01:41:18.070Z,0.20
2018-12-11T01:43:56.229Z,0.40
2018-12-11T01:46:38.391Z,0.40
2018-12-11T01:49:19.188Z,0.50
2018-12-11T01:51:55.787Z,0.50
2018-12-11T01:54:31.643Z,0.60
2018-12-11T01:57:07.824Z,0.60
2018-12-11T01:59:44.822Z,0.60
2018-12-11T02:02:20.695Z,0.70
2018-12-11T02:04:59.385Z,0.70
2018-12-11T02:07:35.987Z,0.70
2018-12-11T02:10:14.459Z,0.80
2018-12-11T02:12:52.924Z,0.80
2018-12-11T02:15:29.718Z,0.70
2018-12-11T02:18:06.406Z,0.80
2018-12-11T02:20:42.349Z,0.80
2018-12-11T02:23:18.766Z,0.80
2018-12-11T02:25:58.249Z,0.80
2018-12-11T02:28:37.028Z,0.80
2018-12-11T02:31:13.942Z,0.80
2018-12-11T02:33:50.666Z,0.80
2018-12-11T02:36:26.597Z,0.80
2018-12-11T02:39:06.909Z,0.80
2018-12-11T02:41:45.376Z,0.80
2018-12-11T02:44:21.427Z,0.80
2018-12-11T02:47:00.170Z,0.80
2018-12-11T02:49:35.863Z,0.70
2018-12-11T02:52:12.681Z,0.70
2018-12-11T02:54:48.669Z,0.80
2018-12-11T02:57:25.275Z,0.80
2018-12-11T03:00:02.172Z,0.80
2018-12-11T03:02:39.106Z,0.80
2018-12-11T03:05:17.705Z,0.80
2018-12-11T03:07:55.718Z,0.80
2018-12-11T03:10:31.679Z,0.80
2018-12-11T03:13:08.443Z,0.80
2018-12-11T03:15:45.802Z,0.80
2018-12-11T03:20:58.625Z,0.80
2018-12-11T03:31:22.862Z,0.80
2018-12-11T03:41:46.805Z,0.80
2018-12-11T03:44:23.523Z,0.80
2018-12-11T03:47:01.904Z,0.80
2018-12-11T03:49:42.096Z,0.70
2018-12-11T03:52:21.556Z,0.80
2018-12-11T03:54:58.854Z,0.80
2018-12-11T03:57:35.601Z,0.80
2018-12-11T04:00:16.018Z,0.80
2018-12-11T04:02:52.310Z,0.80
2018-12-11T04:05:28.182Z,0.80
2018-12-11T04:08:04.904Z,0.70
2018-12-11T04:10:45.891Z,0.70
2018-12-11T04:13:24.158Z,0.70
2018-12-11T04:16:00.577Z,0.70
2018-12-11T04:18:37.046Z,0.80
2018-12-11T04:21:13.579Z,0.70
2018-12-11T04:23:54.590Z,0.80
2018-12-11T04:26:31.224Z,0.80
2018-12-11T04:29:09.148Z,0.80
2018-12-11T04:31:47.199Z,0.80
2018-12-11T04:34:25.241Z,0.70
2018-12-11T04:37:02.056Z,0.80
2018-12-11T04:39:42.460Z,0.80
2018-12-11T04:42:20.850Z,0.80
2018-12-11T04:44:57.738Z,0.80
2018-12-11T04:47:36.370Z,0.80
2018-12-11T04:50:13.146Z,0.80
2018-12-11T04:52:51.105Z,0.80
2018-12-11T04:55:27.039Z,0.80
2018-12-11T04:58:03.922Z,0.80
2018-12-11T05:00:40.758Z,0.80
2018-12-11T05:03:16.751Z,0.80
2018-12-11T05:05:55.060Z,0.80
2018-12-11T05:08:32.249Z,0.80
2018-12-11T05:11:03.937Z,0.80
2018-12-11T05:13:35.814Z,0.80
2018-12-11T05:16:08.135Z,0.80
2018-12-11T05:18:46.533Z,0.80
2018-12-11T05:21:18.230Z,0.80
2018-12-11T05:23:50.128Z,0.80
2018-12-11T05:26:25.328Z,0.80
2018-12-11T05:29:00.646Z,0.80
2018-12-11T05:31:33.649Z,0.70
2018-12-11T05:34:05.849Z,0.70
2018-12-11T05:36:37.744Z,0.60
2018-12-11T05:39:09.822Z,0.60
2018-12-11T05:41:42.054Z,0.70
2018-12-11T05:44:14.492Z,0.70
2018-12-11T05:46:47.262Z,0.70
2018-12-11T05:49:18.270Z,0.70
2018-12-11T05:51:53.851Z,0.70
2018-12-11T05:54:26.318Z,0.70
2018-12-11T05:57:06.769Z,0.70
2018-12-11T05:59:38.978Z,0.60
2018-12-11T06:02:11.561Z,0.60
2018-12-11T06:04:42.063Z,0.60
2018-12-11T06:07:13.842Z,0.60
2018-12-11T06:09:45.839Z,0.60
2018-12-11T06:12:18.070Z,0.70
2018-12-11T06:14:49.626Z,0.70
2018-12-11T06:17:19.829Z,0.70
2018-12-11T06:19:56.721Z,0.80
2018-12-11T06:22:28.577Z,0.80
2018-12-11T06:25:00.716Z,0.80
2018-12-11T06:27:33.180Z,0.90
2018-12-11T06:30:06.996Z,0.90
2018-12-11T06:32:38.631Z,0.90
2018-12-11T06:35:10.461Z,0.90
2018-12-11T06:37:42.538Z,0.90
2018-12-11T06:40:14.373Z,0.90
2018-12-11T06:42:46.485Z,0.90
2018-12-11T06:45:18.370Z,0.80
2018-12-11T06:47:56.610Z,0.90
2018-12-11T06:50:28.821Z,0.90
2018-12-11T06:53:00.731Z,0.90
2018-12-11T06:55:32.758Z,0.90
2018-12-11T06:58:04.863Z,1.00
2018-12-11T07:00:37.077Z,0.90
2018-12-11T07:03:11.026Z,0.90
2018-12-11T07:05:42.802Z,1.00
2018-12-11T07:08:17.724Z,1.00
2018-12-11T07:10:50.209Z,1.00
2018-12-11T07:13:22.507Z,0.90
2018-12-11T07:15:54.702Z,0.90
2018-12-11T07:18:26.567Z,0.90
2018-12-11T07:20:58.832Z,0.90
2018-12-11T07:23:30.983Z,0.90
2018-12-11T07:26:03.031Z,0.90
2018-12-11T07:28:35.280Z,1.00
2018-12-11T07:31:07.315Z,1.00
2018-12-11T07:33:39.410Z,1.00
2018-12-11T07:36:11.369Z,1.00
2018-12-11T07:38:43.529Z,1.00
2018-12-11T07:41:15.426Z,1.00
2018-12-11T07:43:47.253Z,1.00
2018-12-11T07:46:19.028Z,1.00
2018-12-11T07:48:51.698Z,1.00
2018-12-11T07:51:23.641Z,1.00
2018-12-11T07:53:55.749Z,1.00
2018-12-11T07:56:27.580Z,1.00
2018-12-11T07:59:00.270Z,1.00
2018-12-11T08:01:32.974Z,1.00
2018-12-11T08:04:05.292Z,1.00
2018-12-11T08:06:37.693Z,1.10
2018-12-11T08:09:09.909Z,1.10
2018-12-11T08:11:41.716Z,1.10
2018-12-11T08:14:13.502Z,1.10
2018-12-11T08:16:45.347Z,1.10
2018-12-11T08:19:18.246Z,1.10
2018-12-11T08:21:50.365Z,1.10
2018-12-11T08:24:26.669Z,1.10
2018-12-11T08:26:57.146Z,1.10
2018-12-11T08:29:29.062Z,1.10
2018-12-11T08:32:01.222Z,1.20
2018-12-11T08:34:32.994Z,1.20
2018-12-11T08:37:09.318Z,1.20
2018-12-11T08:39:43.596Z,1.20
2018-12-11T08:42:17.569Z,1.20
2018-12-11T08:44:51.300Z,1.20
2018-12-11T08:47:23.305Z,1.30
2018-12-11T08:49:55.162Z,1.30
2018-12-11T08:52:27.117Z,1.30
2018-12-11T08:54:59.339Z,1.40
2018-12-11T08:57:31.147Z,1.50
2018-12-11T09:00:03.275Z,1.50
2018-12-11T09:02:36.454Z,1.50
2018-12-11T09:05:09.416Z,1.50
2018-12-11T09:07:41.303Z,1.50
2018-12-11T09:10:13.066Z,1.50
2018-12-11T09:12:44.985Z,1.60
2018-12-11T09:15:17.127Z,1.80
2018-12-11T09:22:57.464Z,2.20
2018-12-11T09:25:29.999Z,2.20
2018-12-11T09:28:02.086Z,2.00
2018-12-11T09:30:34.518Z,1.90
2018-12-11T09:33:06.876Z,1.80
2018-12-11T09:35:39.182Z,2.00
2018-12-11T09:38:09.319Z,2.40
2018-12-11T09:40:41.135Z,2.70
2018-12-11T09:43:13.153Z,3.60
2018-12-11T09:45:45.009Z,4.00
2018-12-11T09:48:17.163Z,3.40
2018-12-11T09:50:49.154Z,2.80
2018-12-11T09:53:21.280Z,2.50
2018-12-11T09:55:57.358Z,2.30
2018-12-11T09:58:29.583Z,2.20
2018-12-11T10:01:04.049Z,2.30
2018-12-11T10:03:36.769Z,2.50
2018-12-11T10:06:12.794Z,2.70
2018-12-11T10:08:44.624Z,2.90
2018-12-11T10:11:17.234Z,3.00
2018-12-11T10:13:49.695Z,3.10
2018-12-11T10:16:24.150Z,3.10
2018-12-11T10:18:56.769Z,3.10
2018-12-11T10:21:28.750Z,3.10
2018-12-11T10:24:03.726Z,3.10
2018-12-11T10:26:35.939Z,3.20
2018-12-11T10:29:10.821Z,3.20
2018-12-11T10:31:42.569Z,3.10
2018-12-11T10:34:17.791Z,3.20
2018-12-11T10:36:49.609Z,3.20
2018-12-11T10:39:22.010Z,2.90
2018-12-11T10:41:54.531Z,2.90
2018-12-11T10:44:26.414Z,3.10
2018-12-11T10:47:01.790Z,2.90
2018-12-11T10:49:33.772Z,2.80
2018-12-11T10:52:08.716Z,2.70
2018-12-11T10:54:41.763Z,2.80
2018-12-11T10:57:13.640Z,2.90
2018-12-11T10:59:43.754Z,3.30
2018-12-11T11:02:23.224Z,3.60
2018-12-11T11:04:57.114Z,3.70
2018-12-11T11:07:29.273Z,3.90
2018-12-11T11:10:00.826Z,3.70
2018-12-11T11:12:32.992Z,3.50
2018-12-11T11:15:05.233Z,3.60
2018-12-11T11:17:37.320Z,3.50
2018-12-11T11:20:08.886Z,3.60
2018-12-11T11:22:44.826Z,3.60
2018-12-11T11:25:15.891Z,3.60
2018-12-11T11:27:49.072Z,3.70
2018-12-11T11:30:21.027Z,3.70
2018-12-11T11:32:51.414Z,3.70
2018-12-11T11:35:32.029Z,3.70
2018-12-11T11:38:04.163Z,4.10
2018-12-11T11:40:36.170Z,4.30
2018-12-11T11:43:08.363Z,4.40
2018-12-11T11:45:40.368Z,4.20
2018-12-11T11:48:12.901Z,3.70
2018-12-11T11:50:47.965Z,3.80
2018-12-11T11:53:20.399Z,4.00
2018-12-11T11:55:52.622Z,4.30
2018-12-11T11:58:27.132Z,4.40
2018-12-11T12:00:59.671Z,4.20
2018-12-11T12:03:31.517Z,4.20
2018-12-11T12:06:03.549Z,4.20
2018-12-11T12:08:37.798Z,4.20
2018-12-11T12:11:10.193Z,4.40
2018-12-11T12:13:44.650Z,4.40
2018-12-11T12:16:16.418Z,4.70
2018-12-11T12:18:48.256Z,4.40
2018-12-11T12:21:20.463Z,4.10
2018-12-11T12:23:52.166Z,4.00
2018-12-11T12:26:24.397Z,3.80
2018-12-11T12:28:56.250Z,3.80
2018-12-11T12:31:28.365Z,3.60
2018-12-11T12:34:00.402Z,3.50
2018-12-11T12:36:33.318Z,3.60
2018-12-11T12:39:07.695Z,3.70
2018-12-11T12:41:40.190Z,3.70
2018-12-11T12:44:14.506Z,3.70
2018-12-11T12:46:54.263Z,3.70
2018-12-11T12:49:26.023Z,3.50
2018-12-11T12:51:58.277Z,3.50
2018-12-11T12:54:31.224Z,3.50
2018-12-11T12:57:04.466Z,3.50
2018-12-11T12:59:39.854Z,3.50
2018-12-11T13:02:11.613Z,3.60
2018-12-11T13:04:45.674Z,3.60
2018-12-11T13:07:19.650Z,3.50
2018-12-11T13:09:51.394Z,3.50
2018-12-11T13:12:23.343Z,3.40
2018-12-11T13:14:55.284Z,3.40
2018-12-11T13:17:27.310Z,3.30
2018-12-11T13:19:59.274Z,3.40
2018-12-11T13:22:31.339Z,3.50
2018-12-11T13:25:04.243Z,3.40
2018-12-11T13:27:36.266Z,3.50
2018-12-11T13:30:08.313Z,3.40
2018-12-11T13:32:40.073Z,3.60
2018-12-11T13:35:12.090Z,3.70
2018-12-11T13:37:46.193Z,3.80
2018-12-11T13:40:20.368Z,3.80
2018-12-11T13:42:50.880Z,3.70
2018-12-11T13:45:22.708Z,3.70
2018-12-11T13:47:54.919Z,3.80
2018-12-11T13:50:26.608Z,3.60
2018-12-11T13:52:58.492Z,3.60
2018-12-11T13:55:30.881Z,3.60
2018-12-11T13:58:03.128Z,3.60
2018-12-11T14:00:35.597Z,3.60
2018-12-11T14:03:08.070Z,3.50
2018-12-11T14:05:40.280Z,3.50
2018-12-11T14:08:14.648Z,3.40
2018-12-11T14:10:50.709Z,3.40
2018-12-11T14:13:21.095Z,3.30
2018-12-11T14:15:54.421Z,3.10
2018-12-11T14:18:26.439Z,3.00
2018-12-11T14:20:58.349Z,2.80
2018-12-11T14:23:30.405Z,2.70
2018-12-11T14:26:02.442Z,2.60
2018-12-11T14:28:32.957Z,2.60
2018-12-11T14:31:04.910Z,2.50
2018-12-11T14:33:37.108Z,2.50
2018-12-11T14:36:09.407Z,2.60
2018-12-11T14:38:41.598Z,2.70
2018-12-11T14:41:14.526Z,2.70
2018-12-11T14:43:44.654Z,2.80
2018-12-11T14:46:16.579Z,2.80
2018-12-11T14:48:52.054Z,2.70
2018-12-11T14:51:24.266Z,2.70
2018-12-11T14:54:00.644Z,2.70
2018-12-11T14:56:39.416Z,2.70
2018-12-11T14:59:13.773Z,2.70
2018-12-11T15:01:47.962Z,2.70
2018-12-11T15:04:21.849Z,2.60
2018-12-11T15:06:52.318Z,2.50
2018-12-11T15:09:30.160Z,2.50
2018-12-11T15:12:05.538Z,2.50
2018-12-11T15:14:37.358Z,2.40
2018-12-11T15:17:09.502Z,2.40
2018-12-11T15:19:41.627Z,2.30
2018-12-11T15:22:13.670Z,2.30
2018-12-11T15:24:45.637Z,2.30
2018-12-11T15:27:17.544Z,2.20
2018-12-11T15:29:49.402Z,2.20
2018-12-11T15:32:25.616Z,2.10
2018-12-11T15:34:57.584Z,2.00
2018-12-11T15:37:29.631Z,2.00
2018-12-11T15:40:02.854Z,1.90
2018-12-11T15:42:36.941Z,1.80
2018-12-11T15:45:10.893Z,1.70
2018-12-11T15:47:42.486Z,1.60
2018-12-11T15:50:14.710Z,1.50
2018-12-11T15:52:46.238Z,1.40
2018-12-11T15:55:22.521Z,1.30
2018-12-11T16:00:47.709Z,1.30
2018-12-11T16:03:20.088Z,1.20
2018-12-11T16:05:51.834Z,1.20
2018-12-11T16:08:24.006Z,1.20
2018-12-11T16:10:56.847Z,1.20
2018-12-11T16:13:32.206Z,1.20
2018-12-11T16:16:04.717Z,1.20
2018-12-11T16:18:37.578Z,1.20
2018-12-11T16:21:12.039Z,1.10
2018-12-11T16:23:46.101Z,1.10
2018-12-11T16:26:17.804Z,1.10
2018-12-11T16:28:52.218Z,1.10
2018-12-11T16:31:24.153Z,1.20
2018-12-11T16:33:56.777Z,1.20
2018-12-11T16:36:28.788Z,1.30
2018-12-11T16:39:06.222Z,1.20
2018-12-11T16:41:38.496Z,1.20
2018-12-11T16:44:10.490Z,1.20
2018-12-11T16:46:43.293Z,1.10
2018-12-11T16:52:18.032Z,1.10
2018-12-11T16:54:53.189Z,1.00
2018-12-11T16:57:27.114Z,0.90
2018-12-11T16:59:58.964Z,1.00
2018-12-11T17:02:34.489Z,0.80
2018-12-11T17:05:08.407Z,0.70
2018-12-11T17:07:40.871Z,0.60
2018-12-11T17:10:19.077Z,0.60
2018-12-11T17:12:55.399Z,0.60
2018-12-11T17:15:27.504Z,0.40
2018-12-11T17:18:02.322Z,0.30
2018-12-11T17:20:35.688Z,0.30
2018-12-11T17:23:08.824Z,0.20
2018-12-11T17:25:49.584Z,0.30
2018-12-11T17:28:22.152Z,0.20
2018-12-11T17:30:56.346Z,0.30
2018-12-11T17:33:28.839Z,0.20
2018-12-11T17:36:05.384Z,0.20
2018-12-11T17:38:43.481Z,0.10
2018-12-11T17:44:17.233Z,0.20
2018-12-11T17:52:04.381Z,0.20
2018-12-11T17:54:40.654Z,0.20
2018-12-11T18:00:13.012Z,0.30
2018-12-11T18:02:52.377Z,0.30
2018-12-11T18:05:29.119Z,0.30
2018-12-11T18:11:10.466Z,0.30
2018-12-11T18:13:49.090Z,0.40
2018-12-11T18:16:23.010Z,0.40
2018-12-11T18:18:55.738Z,0.50
2018-12-11T18:21:33.726Z,0.60
2018-12-11T18:24:11.749Z,0.50
2018-12-11T18:26:47.840Z,0.50
2018-12-11T18:29:26.189Z,0.40
2018-12-11T18:32:03.095Z,0.40
2018-12-11T18:34:48.040Z,0.40
2018-12-11T18:37:26.174Z,0.40
2018-12-11T18:40:02.965Z,0.40
2018-12-11T18:42:39.808Z,0.30
2018-12-11T18:45:18.787Z,0.30
2018-12-11T18:48:02.046Z,0.30
2018-12-11T18:50:40.685Z,0.30
2018-12-11T18:53:21.072Z,0.30
2018-12-11T19:01:15.106Z,0.30
2018-12-11T19:03:51.638Z,0.30
2018-12-11T19:06:35.408Z,0.30
2018-12-11T19:09:12.209Z,0.30
2018-12-11T19:11:51.146Z,0.30
2018-12-11T19:14:31.599Z,0.30
2018-12-11T19:17:12.196Z,0.20
2018-12-11T19:19:48.641Z,0.20
2018-12-11T19:22:24.810Z,0.30
2018-12-11T19:25:00.814Z,0.30
2018-12-11T19:27:37.195Z,0.30
2018-12-11T19:30:18.390Z,0.30
2018-12-11T19:32:56.707Z,0.30
2018-12-11T19:35:34.854Z,0.30
2018-12-11T19:38:11.635Z,0.40
2018-12-11T19:40:54.189Z,0.40
2018-12-11T19:43:39.061Z,0.50
2018-12-11T19:46:15.657Z,0.50
2018-12-11T19:48:56.709Z,0.60
2018-12-11T19:51:37.649Z,0.60
2018-12-11T19:54:18.777Z,0.70
2018-12-11T19:56:54.193Z,0.80
2018-12-11T19:59:32.267Z,0.80
2018-12-11T20:02:12.601Z,0.80
2018-12-11T20:04:53.372Z,0.90
2018-12-11T20:07:34.342Z,0.90
2018-12-11T20:10:18.474Z,0.90
2018-12-11T20:12:59.744Z,0.90
2018-12-11T20:15:40.357Z,0.80
2018-12-11T20:18:18.914Z,0.70
2018-12-11T20:20:53.920Z,0.60
2018-12-11T20:23:34.234Z,0.60
2018-12-11T20:26:15.423Z,0.60
2018-12-11T20:28:56.322Z,0.60
2018-12-11T20:31:37.632Z,0.70
2018-12-11T20:34:18.082Z,0.60
2018-12-11T20:36:56.589Z,0.60
2018-12-11T20:39:35.500Z,0.50
2018-12-11T20:42:16.518Z,0.50
2018-12-11T20:44:57.413Z,0.60
2018-12-11T20:47:35.960Z,0.60
2018-12-11T20:50:17.192Z,0.70
2018-12-11T20:52:57.689Z,0.70
2018-12-11T20:55:38.364Z,0.70
2018-12-11T20:58:19.378Z,0.70
2018-12-11T21:00:59.679Z,0.70
2018-12-11T21:03:40.485Z,0.70
2018-12-11T21:06:21.136Z,0.70
2018-12-11T21:09:02.064Z,0.60
2018-12-11T21:11:42.912Z,0.60
2018-12-11T21:14:23.983Z,0.60
2018-12-11T21:17:00.594Z,0.60
2018-12-11T21:19:40.989Z,0.70
2018-12-11T21:22:19.043Z,0.60
2018-12-11T21:25:00.344Z,0.60
2018-12-11T21:27:29.285Z,0.50
2018-12-11T21:29:58.043Z,0.40
2018-12-11T21:32:36.985Z,0.50
2018-12-11T21:35:07.420Z,0.40
2018-12-11T21:37:36.146Z,0.40
2018-12-11T21:40:05.953Z,0.40
2018-12-11T21:42:47.183Z,0.50
2018-12-11T21:45:28.033Z,0.50
2018-12-11T21:47:56.960Z,0.50
2018-12-11T21:50:25.906Z,0.50
2018-12-11T21:52:54.928Z,0.50
2018-12-11T21:55:23.712Z,0.50
2018-12-11T21:57:52.606Z,0.50
2018-12-11T22:00:21.518Z,0.50
2018-12-11T22:02:50.434Z,0.50
2018-12-11T22:05:20.174Z,0.50
2018-12-11T22:07:49.043Z,0.40
2018-12-11T22:10:29.892Z,0.40
2018-12-11T22:12:58.619Z,0.40
2018-12-11T22:15:28.479Z,0.30
2018-12-11T22:17:57.267Z,0.30
2018-12-11T22:20:28.164Z,0.30
2018-12-11T22:22:57.031Z,0.30
2018-12-11T22:25:35.214Z,0.30
2018-12-11T22:28:04.160Z,0.30
2018-12-11T22:30:44.814Z,0.20
2018-12-11T22:33:13.718Z,0.10
2018-12-11T22:35:42.483Z,0.00
2018-12-11T22:38:11.300Z,-0.10
2018-12-11T22:40:49.985Z,-0.20
2018-12-11T22:43:18.879Z,-0.20
2018-12-11T22:45:47.701Z,-0.30
2018-12-11T22:48:16.484Z,-0.40
2018-12-11T22:50:54.730Z,-0.40
2018-12-11T22:53:24.073Z,-0.50
2018-12-11T22:55:52.916Z,-0.50
2018-12-11T22:58:21.727Z,-0.50
2018-12-11T23:00:58.521Z,-0.60
2018-12-11T23:03:27.538Z,-0.70
2018-12-11T23:06:08.333Z,-0.70
2018-12-11T23:08:46.560Z,-0.70
2018-12-11T23:11:23.371Z,-0.70
2018-12-11T23:14:04.490Z,-0.70
2018-12-11T23:16:45.250Z,-0.60
2018-12-11T23:19:23.807Z,-0.60
2018-12-11T23:22:02.620Z,-0.50
2018-12-11T23:24:44.088Z,-0.50
2018-12-11T23:27:23.178Z,-0.30
2018-12-11T23:30:03.999Z,-0.30
2018-12-11T23:32:42.070Z,-0.20
2018-12-11T23:35:11.564Z,-0.20
2018-12-11T23:37:40.477Z,-0.20
2018-12-11T23:40:09.314Z,-0.20
2018-12-11T23:42:45.975Z,-0.20
2018-12-11T23:45:14.733Z,-0.20
2018-12-11T23:47:44.215Z,-0.30
2018-12-11T23:50:22.558Z,-0.30
2018-12-11T23:53:01.039Z,-0.30
2018-12-11T23:55:42.491Z,-0.40
2018-12-11T23:58:11.478Z,-0.40
